THY5HS LTFM-LTAI
Flight info
| Callsign | THY5HS |
|---|---|
| Flight time | 1h 1m |
| Altitude | 37000 |
| Route | RATVU UT35 BABSA |
| Aircraft | A359/H-SDE2E3GHIJ1J3J4J5LM1ORWXY/LB1D1 |
Departure
| Time | 2026-05-06 07:40 |
|---|---|
| Airport | İstanbul Airport (LTFM) |
Arrival
| Time | 2026-05-06 08:41 |
|---|---|
| Airport | Antalya International Airport (LTAI) |
| Time | Latitude | Longitude | Altitude | Speed | Heading |
|---|---|---|---|---|---|
| 2026-05-06 06:59 | 41.26804 | 28.74370 | 336 ft | 0 kts | 272° |
| 2026-05-06 07:25 | 41.26803 | 28.74383 | 335 ft | 4 kts | 270° |
| 2026-05-06 07:26 | 41.26805 | 28.74418 | 338 ft | 4 kts | 267° |
| 2026-05-06 07:26 | 41.26804 | 28.74448 | 336 ft | 4 kts | 296° |
| 2026-05-06 07:26 | 41.26787 | 28.74467 | 335 ft | 4 kts | 354° |
| 2026-05-06 07:26 | 41.26763 | 28.74468 | 336 ft | 1 kts | 359° |
| 2026-05-06 07:27 | 41.26759 | 28.74468 | 337 ft | 0 kts | 359° |
| 2026-05-06 07:30 | 41.26798 | 28.74466 | 335 ft | 9 kts | 359° |
| 2026-05-06 07:30 | 41.26872 | 28.74465 | 335 ft | 12 kts | 359° |
| 2026-05-06 07:30 | 41.26970 | 28.74463 | 338 ft | 16 kts | 359° |
| 2026-05-06 07:31 | 41.27054 | 28.74395 | 335 ft | 16 kts | 283° |
| 2026-05-06 07:31 | 41.27056 | 28.74243 | 337 ft | 18 kts | 269° |
| 2026-05-06 07:31 | 41.27058 | 28.74071 | 336 ft | 16 kts | 285° |
| 2026-05-06 07:31 | 41.27112 | 28.74007 | 337 ft | 10 kts | 324° |
| 2026-05-06 07:32 | 41.27138 | 28.73917 | 337 ft | 12 kts | 274° |
| 2026-05-06 07:32 | 41.27138 | 28.73792 | 337 ft | 15 kts | 269° |
| 2026-05-06 07:32 | 41.27139 | 28.73642 | 338 ft | 18 kts | 270° |
| 2026-05-06 07:32 | 41.27141 | 28.73466 | 338 ft | 20 kts | 271° |
| 2026-05-06 07:33 | 41.27142 | 28.73271 | 340 ft | 22 kts | 271° |
| 2026-05-06 07:33 | 41.27147 | 28.73133 | 335 ft | 0 kts | 292° |
| 2026-05-06 07:33 | 41.27171 | 28.73110 | 335 ft | 11 kts | 339° |
| 2026-05-06 07:34 | 41.27278 | 28.73095 | 335 ft | 18 kts | 359° |
| 2026-05-06 07:34 | 41.27410 | 28.73092 | 336 ft | 20 kts | 359° |
| 2026-05-06 07:34 | 41.27552 | 28.73073 | 335 ft | 19 kts | 327° |
| 2026-05-06 07:34 | 41.27653 | 28.72977 | 335 ft | 19 kts | 350° |
| 2026-05-06 07:35 | 41.27793 | 28.72961 | 336 ft | 22 kts | 355° |
| 2026-05-06 07:35 | 41.27949 | 28.72958 | 335 ft | 23 kts | 360° |
| 2026-05-06 07:35 | 41.28119 | 28.72959 | 339 ft | 26 kts | 360° |
| 2026-05-06 07:35 | 41.28304 | 28.72959 | 337 ft | 28 kts | 360° |
| 2026-05-06 07:36 | 41.28499 | 28.72959 | 337 ft | 30 kts | 360° |
| 2026-05-06 07:36 | 41.28701 | 28.72950 | 336 ft | 30 kts | 357° |
| 2026-05-06 07:36 | 41.28913 | 28.72942 | 335 ft | 31 kts | 358° |
| 2026-05-06 07:36 | 41.29137 | 28.72935 | 336 ft | 33 kts | 359° |
| 2026-05-06 07:37 | 41.29366 | 28.72930 | 339 ft | 30 kts | 359° |
| 2026-05-06 07:37 | 41.29400 | 28.72929 | 339 ft | 0 kts | 359° |
| 2026-05-06 07:37 | 41.29408 | 28.72929 | 335 ft | 6 kts | 359° |
| 2026-05-06 07:37 | 41.29482 | 28.72879 | 335 ft | 16 kts | 296° |
| 2026-05-06 07:38 | 41.29490 | 28.72717 | 337 ft | 19 kts | 269° |
| 2026-05-06 07:38 | 41.29488 | 28.72522 | 338 ft | 22 kts | 269° |
| 2026-05-06 07:38 | 41.29440 | 28.72427 | 335 ft | 5 kts | 180° |
| 2026-05-06 07:38 | 41.29407 | 28.72443 | 336 ft | 7 kts | 164° |
| 2026-05-06 07:39 | 41.29351 | 28.72453 | 337 ft | 10 kts | 177° |
| 2026-05-06 07:39 | 41.29189 | 28.72461 | 337 ft | 56 kts | 178° |
| 2026-05-06 07:39 | 41.28545 | 28.72471 | 336 ft | 127 kts | 179° |
| 2026-05-06 07:39 | 41.27468 | 28.72499 | 469 ft | 175 kts | 179° |
| 2026-05-06 07:40 | 41.26237 | 28.72515 | 1291 ft | 175 kts | 180° |
| 2026-05-06 07:40 | 41.25046 | 28.72480 | 2157 ft | 175 kts | 180° |
| 2026-05-06 07:40 | 41.23740 | 28.72547 | 2512 ft | 203 kts | 177° |
| 2026-05-06 07:40 | 41.22215 | 28.72664 | 2850 ft | 235 kts | 177° |
| 2026-05-06 07:41 | 41.20496 | 28.72779 | 3377 ft | 257 kts | 178° |
| 2026-05-06 07:41 | 41.18681 | 28.72720 | 4120 ft | 265 kts | 192° |
| 2026-05-06 07:41 | 41.17034 | 28.71639 | 4893 ft | 268 kts | 222° |
| 2026-05-06 07:41 | 41.15631 | 28.69978 | 5707 ft | 273 kts | 226° |
| 2026-05-06 07:42 | 41.14235 | 28.68240 | 6540 ft | 280 kts | 226° |
| 2026-05-06 07:42 | 41.12689 | 28.66622 | 7365 ft | 289 kts | 211° |
| 2026-05-06 07:42 | 41.10775 | 28.65874 | 8166 ft | 298 kts | 182° |
| 2026-05-06 07:42 | 41.08694 | 28.66067 | 9091 ft | 302 kts | 172° |
| 2026-05-06 07:43 | 41.06600 | 28.66463 | 10057 ft | 306 kts | 171° |
| 2026-05-06 07:43 | 41.04457 | 28.66875 | 10740 ft | 320 kts | 171° |
| 2026-05-06 07:43 | 41.02176 | 28.67303 | 11136 ft | 342 kts | 171° |
| 2026-05-06 07:43 | 40.99765 | 28.67740 | 11748 ft | 355 kts | 172° |
| 2026-05-06 07:44 | 40.97314 | 28.68178 | 12573 ft | 362 kts | 172° |
| 2026-05-06 07:44 | 40.94801 | 28.68623 | 13419 ft | 367 kts | 172° |
| 2026-05-06 07:44 | 40.92283 | 28.69068 | 14208 ft | 373 kts | 172° |
| 2026-05-06 07:44 | 40.89697 | 28.69522 | 14957 ft | 377 kts | 172° |
| 2026-05-06 07:45 | 40.87083 | 28.69940 | 15723 ft | 381 kts | 173° |
| 2026-05-06 07:45 | 40.84432 | 28.70349 | 16438 ft | 386 kts | 173° |
| 2026-05-06 07:45 | 40.81750 | 28.70764 | 17186 ft | 390 kts | 173° |
| 2026-05-06 07:45 | 40.79039 | 28.71186 | 17952 ft | 394 kts | 173° |
| 2026-05-06 07:46 | 40.76324 | 28.71611 | 18672 ft | 398 kts | 173° |
| 2026-05-06 07:46 | 40.73557 | 28.72045 | 19393 ft | 401 kts | 173° |
| 2026-05-06 07:46 | 40.70774 | 28.72482 | 20125 ft | 404 kts | 173° |
| 2026-05-06 07:46 | 40.67983 | 28.72920 | 20857 ft | 407 kts | 173° |
| 2026-05-06 07:47 | 40.65189 | 28.73363 | 21592 ft | 410 kts | 173° |
| 2026-05-06 07:47 | 40.62347 | 28.73810 | 22316 ft | 413 kts | 174° |
| 2026-05-06 07:47 | 40.59478 | 28.74260 | 23051 ft | 417 kts | 174° |
| 2026-05-06 07:47 | 40.56617 | 28.74947 | 23741 ft | 421 kts | 165° |
| 2026-05-06 07:48 | 40.53894 | 28.76315 | 24307 ft | 424 kts | 153° |
| 2026-05-06 07:48 | 40.51419 | 28.78442 | 24869 ft | 427 kts | 140° |
| 2026-05-06 07:48 | 40.49157 | 28.81000 | 25431 ft | 431 kts | 137° |
| 2026-05-06 07:48 | 40.46917 | 28.83651 | 25988 ft | 435 kts | 137° |
| 2026-05-06 07:49 | 40.44705 | 28.86265 | 26543 ft | 438 kts | 137° |
| 2026-05-06 07:49 | 40.42422 | 28.88950 | 27031 ft | 444 kts | 137° |
| 2026-05-06 07:49 | 40.40107 | 28.91659 | 27559 ft | 448 kts | 137° |
| 2026-05-06 07:49 | 40.37771 | 28.94386 | 28125 ft | 451 kts | 138° |
| 2026-05-06 07:50 | 40.35442 | 28.97098 | 28736 ft | 453 kts | 138° |
| 2026-05-06 07:50 | 40.33046 | 28.99779 | 29425 ft | 453 kts | 142° |
| 2026-05-06 07:50 | 40.30390 | 29.02012 | 29920 ft | 456 kts | 153° |
| 2026-05-06 07:50 | 40.27436 | 29.03561 | 30348 ft | 459 kts | 163° |
| 2026-05-06 07:51 | 40.24366 | 29.04709 | 30719 ft | 463 kts | 166° |
| 2026-05-06 07:51 | 40.21304 | 29.05883 | 31083 ft | 468 kts | 161° |
| 2026-05-06 07:51 | 40.18320 | 29.07613 | 31421 ft | 473 kts | 151° |
| 2026-05-06 07:51 | 40.15592 | 29.10047 | 31702 ft | 478 kts | 140° |
| 2026-05-06 07:52 | 40.13052 | 29.12835 | 32096 ft | 481 kts | 139° |
| 2026-05-06 07:52 | 40.10512 | 29.15696 | 32492 ft | 484 kts | 139° |
| 2026-05-06 07:52 | 40.07949 | 29.18578 | 32866 ft | 487 kts | 139° |
| 2026-05-06 07:52 | 40.05371 | 29.21466 | 33191 ft | 491 kts | 139° |
| 2026-05-06 07:53 | 40.02787 | 29.24352 | 33526 ft | 494 kts | 139° |
| 2026-05-06 07:53 | 40.00171 | 29.27268 | 33991 ft | 494 kts | 139° |
| 2026-05-06 07:53 | 39.97593 | 29.30136 | 34365 ft | 495 kts | 139° |
| 2026-05-06 07:53 | 39.94961 | 29.33060 | 34612 ft | 498 kts | 139° |
| 2026-05-06 07:54 | 39.92306 | 29.35934 | 34927 ft | 500 kts | 142° |
| 2026-05-06 07:54 | 39.89398 | 29.38403 | 35252 ft | 500 kts | 153° |
| 2026-05-06 07:54 | 39.86265 | 29.40375 | 35590 ft | 500 kts | 156° |
| 2026-05-06 07:54 | 39.83078 | 29.42187 | 35944 ft | 500 kts | 158° |
| 2026-05-06 07:55 | 39.79893 | 29.43913 | 36277 ft | 500 kts | 158° |
| 2026-05-06 07:55 | 39.76670 | 29.45633 | 36594 ft | 501 kts | 159° |
| 2026-05-06 07:55 | 39.73451 | 29.47352 | 36925 ft | 501 kts | 158° |
| 2026-05-06 07:55 | 39.70271 | 29.49062 | 37082 ft | 498 kts | 158° |
| 2026-05-06 07:56 | 39.67152 | 29.50753 | 37087 ft | 484 kts | 158° |
| 2026-05-06 07:56 | 39.64069 | 29.52433 | 37094 ft | 476 kts | 158° |
| 2026-05-06 07:56 | 39.57937 | 29.55622 | 37094 ft | 474 kts | 160° |
| 2026-05-06 07:57 | 39.51798 | 29.58627 | 37096 ft | 473 kts | 160° |
| 2026-05-06 07:57 | 39.45639 | 29.61648 | 37095 ft | 473 kts | 160° |
| 2026-05-06 07:58 | 39.39551 | 29.64664 | 37093 ft | 474 kts | 160° |
| 2026-05-06 07:58 | 39.33396 | 29.67722 | 37095 ft | 474 kts | 160° |
| 2026-05-06 07:59 | 39.27269 | 29.70762 | 37094 ft | 474 kts | 160° |
| 2026-05-06 07:59 | 39.21116 | 29.73808 | 37090 ft | 474 kts | 160° |
| 2026-05-06 08:00 | 39.14979 | 29.76839 | 37098 ft | 474 kts | 160° |
| 2026-05-06 08:00 | 39.08848 | 29.79861 | 37100 ft | 475 kts | 160° |
| 2026-05-06 08:01 | 39.02706 | 29.82883 | 37106 ft | 474 kts | 161° |
| 2026-05-06 08:01 | 38.96542 | 29.85909 | 37096 ft | 474 kts | 161° |
| 2026-05-06 08:02 | 38.90398 | 29.88921 | 37101 ft | 475 kts | 161° |
| 2026-05-06 08:02 | 38.84262 | 29.91902 | 37100 ft | 475 kts | 161° |
| 2026-05-06 08:03 | 38.78090 | 29.94822 | 37103 ft | 475 kts | 161° |
| 2026-05-06 08:03 | 38.71894 | 29.97744 | 37103 ft | 474 kts | 161° |
| 2026-05-06 08:04 | 38.65723 | 30.00662 | 37102 ft | 475 kts | 161° |
| 2026-05-06 08:04 | 38.59586 | 30.03565 | 36899 ft | 469 kts | 161° |
| 2026-05-06 08:05 | 38.56518 | 30.05015 | 36082 ft | 474 kts | 161° |
| 2026-05-06 08:05 | 38.53419 | 30.06476 | 35180 ft | 481 kts | 161° |
| 2026-05-06 08:05 | 38.50256 | 30.07966 | 34243 ft | 489 kts | 161° |
| 2026-05-06 08:05 | 38.47042 | 30.09478 | 33214 ft | 495 kts | 161° |
| 2026-05-06 08:06 | 38.43805 | 30.11001 | 32405 ft | 496 kts | 161° |
| 2026-05-06 08:06 | 38.40603 | 30.12507 | 31738 ft | 494 kts | 161° |
| 2026-05-06 08:06 | 38.37386 | 30.14020 | 31097 ft | 491 kts | 161° |
| 2026-05-06 08:06 | 38.34232 | 30.15501 | 30500 ft | 488 kts | 161° |
| 2026-05-06 08:07 | 38.31052 | 30.16992 | 29889 ft | 485 kts | 161° |
| 2026-05-06 08:07 | 38.27926 | 30.18437 | 29241 ft | 480 kts | 161° |
| 2026-05-06 08:07 | 38.24830 | 30.19855 | 28236 ft | 468 kts | 161° |
| 2026-05-06 08:07 | 38.21796 | 30.21245 | 27382 ft | 455 kts | 161° |
| 2026-05-06 08:08 | 38.18887 | 30.22575 | 26917 ft | 434 kts | 161° |
| 2026-05-06 08:08 | 38.16132 | 30.23835 | 26555 ft | 413 kts | 161° |
| 2026-05-06 08:08 | 38.13509 | 30.25036 | 26412 ft | 390 kts | 161° |
| 2026-05-06 08:08 | 38.10989 | 30.26189 | 26285 ft | 380 kts | 161° |
| 2026-05-06 08:09 | 38.08566 | 30.27297 | 26151 ft | 370 kts | 162° |
| 2026-05-06 08:09 | 38.06177 | 30.28389 | 25834 ft | 367 kts | 162° |
| 2026-05-06 08:09 | 38.03775 | 30.29486 | 25435 ft | 367 kts | 162° |
| 2026-05-06 08:09 | 38.01440 | 30.30799 | 25049 ft | 368 kts | 150° |
| 2026-05-06 08:10 | 37.99339 | 30.32666 | 24896 ft | 375 kts | 143° |
| 2026-05-06 08:10 | 37.97276 | 30.34708 | 24746 ft | 381 kts | 142° |
| 2026-05-06 08:10 | 37.95191 | 30.36792 | 24602 ft | 382 kts | 142° |
| 2026-05-06 08:10 | 37.93102 | 30.38877 | 24447 ft | 382 kts | 142° |
| 2026-05-06 08:11 | 37.91044 | 30.40923 | 24278 ft | 382 kts | 142° |
| 2026-05-06 08:11 | 37.88957 | 30.42977 | 24113 ft | 382 kts | 143° |
| 2026-05-06 08:11 | 37.86662 | 30.44643 | 23950 ft | 380 kts | 160° |
| 2026-05-06 08:11 | 37.84116 | 30.45338 | 23789 ft | 374 kts | 180° |
| 2026-05-06 08:12 | 37.81566 | 30.44958 | 23619 ft | 367 kts | 200° |
| 2026-05-06 08:12 | 37.79291 | 30.43606 | 23458 ft | 359 kts | 218° |
| 2026-05-06 08:12 | 37.77363 | 30.41631 | 23299 ft | 357 kts | 223° |
| 2026-05-06 08:12 | 37.76051 | 30.40367 | 23196 ft | 358 kts | 219° |
| 2026-05-06 08:13 | 37.74011 | 30.38557 | 23040 ft | 357 kts | 218° |
| 2026-05-06 08:13 | 37.71301 | 30.36221 | 22836 ft | 355 kts | 217° |
| 2026-05-06 08:13 | 37.69256 | 30.34473 | 22686 ft | 355 kts | 217° |
| 2026-05-06 08:13 | 37.67434 | 30.32920 | 22544 ft | 354 kts | 217° |
| 2026-05-06 08:14 | 37.65392 | 30.31182 | 22374 ft | 353 kts | 217° |
| 2026-05-06 08:14 | 37.63370 | 30.29465 | 22239 ft | 353 kts | 217° |
| 2026-05-06 08:14 | 37.61989 | 30.28377 | 22149 ft | 355 kts | 212° |
| 2026-05-06 08:14 | 37.58838 | 30.27115 | 21930 ft | 359 kts | 191° |
| 2026-05-06 08:15 | 37.57201 | 30.26847 | 21660 ft | 357 kts | 188° |
| 2026-05-06 08:15 | 37.54742 | 30.26663 | 21399 ft | 360 kts | 180° |
| 2026-05-06 08:15 | 37.51344 | 30.27460 | 21442 ft | 386 kts | 163° |
| 2026-05-06 08:15 | 37.49628 | 30.28136 | 21253 ft | 380 kts | 164° |
| 2026-05-06 08:16 | 37.46261 | 30.29467 | 20233 ft | 388 kts | 163° |
| 2026-05-06 08:16 | 37.43689 | 30.30529 | 19630 ft | 392 kts | 162° |
| 2026-05-06 08:16 | 37.41976 | 30.31254 | 19257 ft | 392 kts | 162° |
| 2026-05-06 08:16 | 37.39407 | 30.32355 | 18738 ft | 389 kts | 162° |
| 2026-05-06 08:17 | 37.36856 | 30.33460 | 18196 ft | 386 kts | 162° |
| 2026-05-06 08:17 | 37.34340 | 30.34555 | 17662 ft | 383 kts | 161° |
| 2026-05-06 08:17 | 37.31833 | 30.35649 | 17154 ft | 380 kts | 161° |
| 2026-05-06 08:17 | 37.29346 | 30.36735 | 16649 ft | 377 kts | 161° |
| 2026-05-06 08:18 | 37.26877 | 30.37814 | 16147 ft | 374 kts | 161° |
| 2026-05-06 08:18 | 37.24443 | 30.38876 | 15633 ft | 372 kts | 161° |
| 2026-05-06 08:18 | 37.22006 | 30.39940 | 15161 ft | 369 kts | 161° |
| 2026-05-06 08:18 | 37.19620 | 30.40981 | 14652 ft | 367 kts | 161° |
| 2026-05-06 08:19 | 37.17210 | 30.42033 | 14119 ft | 366 kts | 161° |
| 2026-05-06 08:19 | 37.14826 | 30.43073 | 13592 ft | 363 kts | 161° |
| 2026-05-06 08:19 | 37.12452 | 30.44106 | 13089 ft | 359 kts | 161° |
| 2026-05-06 08:19 | 37.10113 | 30.45123 | 12602 ft | 354 kts | 161° |
| 2026-05-06 08:20 | 37.07799 | 30.46128 | 12117 ft | 349 kts | 161° |
| 2026-05-06 08:20 | 37.05534 | 30.47113 | 11660 ft | 346 kts | 161° |
| 2026-05-06 08:20 | 37.03273 | 30.48095 | 11217 ft | 342 kts | 161° |
| 2026-05-06 08:20 | 37.01076 | 30.49049 | 11053 ft | 327 kts | 161° |
| 2026-05-06 08:21 | 36.98998 | 30.49953 | 10938 ft | 314 kts | 161° |
| 2026-05-06 08:21 | 36.96990 | 30.50825 | 10743 ft | 303 kts | 161° |
| 2026-05-06 08:21 | 36.95006 | 30.51684 | 10391 ft | 301 kts | 161° |
| 2026-05-06 08:21 | 36.93030 | 30.52539 | 10046 ft | 300 kts | 161° |
| 2026-05-06 08:22 | 36.91064 | 30.53392 | 9679 ft | 299 kts | 161° |
| 2026-05-06 08:22 | 36.89117 | 30.54234 | 9307 ft | 297 kts | 161° |
| 2026-05-06 08:22 | 36.87171 | 30.55074 | 8951 ft | 295 kts | 161° |
| 2026-05-06 08:22 | 36.85235 | 30.55911 | 8603 ft | 293 kts | 161° |
| 2026-05-06 08:23 | 36.83343 | 30.56726 | 8270 ft | 290 kts | 161° |
| 2026-05-06 08:23 | 36.81437 | 30.57548 | 7921 ft | 288 kts | 161° |
| 2026-05-06 08:23 | 36.79551 | 30.58364 | 7590 ft | 287 kts | 161° |
| 2026-05-06 08:23 | 36.77709 | 30.59268 | 7364 ft | 282 kts | 154° |
| 2026-05-06 08:24 | 36.76020 | 30.60523 | 6894 ft | 283 kts | 147° |
| 2026-05-06 08:24 | 36.74406 | 30.61901 | 6448 ft | 284 kts | 146° |
| 2026-05-06 08:24 | 36.72798 | 30.63316 | 5983 ft | 282 kts | 145° |
| 2026-05-06 08:24 | 36.71206 | 30.64731 | 5601 ft | 279 kts | 145° |
| 2026-05-06 08:25 | 36.69663 | 30.66107 | 5277 ft | 275 kts | 145° |
| 2026-05-06 08:25 | 36.68129 | 30.67479 | 4963 ft | 272 kts | 145° |
| 2026-05-06 08:25 | 36.66597 | 30.68850 | 4638 ft | 271 kts | 145° |
| 2026-05-06 08:25 | 36.65078 | 30.70228 | 4334 ft | 269 kts | 143° |
| 2026-05-06 08:26 | 36.63821 | 30.71941 | 4016 ft | 270 kts | 120° |
| 2026-05-06 08:26 | 36.63286 | 30.74130 | 3736 ft | 266 kts | 92° |
| 2026-05-06 08:26 | 36.63608 | 30.76359 | 3429 ft | 262 kts | 65° |
| 2026-05-06 08:26 | 36.64727 | 30.78060 | 3260 ft | 254 kts | 31° |
| 2026-05-06 08:27 | 36.66316 | 30.79066 | 3266 ft | 259 kts | 22° |
| 2026-05-06 08:27 | 36.67997 | 30.79629 | 3055 ft | 253 kts | 6° |
| 2026-05-06 08:27 | 36.69719 | 30.79725 | 2878 ft | 243 kts | 0° |
| 2026-05-06 08:27 | 36.71367 | 30.79692 | 2740 ft | 231 kts | 359° |
| 2026-05-06 08:28 | 36.72940 | 30.79624 | 2576 ft | 221 kts | 358° |
| 2026-05-06 08:28 | 36.74443 | 30.79542 | 2422 ft | 212 kts | 358° |
| 2026-05-06 08:28 | 36.75880 | 30.79464 | 2309 ft | 201 kts | 358° |
| 2026-05-06 08:28 | 36.77236 | 30.79419 | 2197 ft | 189 kts | 356° |
| 2026-05-06 08:29 | 36.78501 | 30.79484 | 2092 ft | 175 kts | 8° |
| 2026-05-06 08:29 | 36.79659 | 30.79635 | 1862 ft | 168 kts | 3° |
| 2026-05-06 08:29 | 36.80790 | 30.79733 | 1633 ft | 158 kts | 7° |
| 2026-05-06 08:29 | 36.81847 | 30.79887 | 1415 ft | 147 kts | 6° |
| 2026-05-06 08:30 | 36.82832 | 30.80016 | 1232 ft | 137 kts | 6° |
| 2026-05-06 08:30 | 36.83758 | 30.80135 | 1057 ft | 133 kts | 6° |
| 2026-05-06 08:30 | 36.84682 | 30.80259 | 881 ft | 133 kts | 6° |
| 2026-05-06 08:30 | 36.85605 | 30.80385 | 728 ft | 132 kts | 6° |
| 2026-05-06 08:31 | 36.86524 | 30.80517 | 563 ft | 134 kts | 4° |
| 2026-05-06 08:31 | 36.87434 | 30.80643 | 317 ft | 130 kts | 4° |
| 2026-05-06 08:31 | 36.88308 | 30.80756 | 214 ft | 124 kts | 4° |
| 2026-05-06 08:31 | 36.89077 | 30.80858 | 252 ft | 111 kts | 2° |
| 2026-05-06 08:32 | 36.90018 | 30.80982 | 743 ft | 157 kts | 4° |
| 2026-05-06 08:32 | 36.91224 | 30.81104 | 1257 ft | 180 kts | 6° |
| 2026-05-06 08:32 | 36.92391 | 30.81647 | 1528 ft | 181 kts | 30° |
| 2026-05-06 08:32 | 36.93476 | 30.82576 | 1730 ft | 200 kts | 35° |
| 2026-05-06 08:33 | 36.94518 | 30.83872 | 1980 ft | 224 kts | 57° |
| 2026-05-06 08:33 | 36.94918 | 30.85780 | 2360 ft | 232 kts | 88° |
| 2026-05-06 08:33 | 36.94484 | 30.87704 | 2489 ft | 233 kts | 120° |
| 2026-05-06 08:33 | 36.93334 | 30.89070 | 2495 ft | 236 kts | 151° |
| 2026-05-06 08:34 | 36.91747 | 30.89561 | 2499 ft | 237 kts | 178° |
| 2026-05-06 08:34 | 36.88464 | 30.89439 | 2491 ft | 237 kts | 183° |
| 2026-05-06 08:34 | 36.86812 | 30.89330 | 2493 ft | 238 kts | 183° |
| 2026-05-06 08:35 | 36.85162 | 30.89220 | 2488 ft | 236 kts | 184° |
| 2026-05-06 08:35 | 36.83526 | 30.89102 | 2491 ft | 236 kts | 183° |
| 2026-05-06 08:35 | 36.81900 | 30.88973 | 2493 ft | 234 kts | 183° |
| 2026-05-06 08:35 | 36.80294 | 30.88840 | 2495 ft | 234 kts | 184° |
| 2026-05-06 08:36 | 36.78678 | 30.88706 | 2408 ft | 228 kts | 183° |
| 2026-05-06 08:36 | 36.77161 | 30.88373 | 2274 ft | 219 kts | 199° |
| 2026-05-06 08:36 | 36.75878 | 30.87389 | 1896 ft | 220 kts | 229° |
| 2026-05-06 08:36 | 36.75312 | 30.85673 | 1576 ft | 216 kts | 271° |
| 2026-05-06 08:37 | 36.75735 | 30.83918 | 1503 ft | 211 kts | 299° |
| 2026-05-06 08:37 | 36.76438 | 30.82406 | 1490 ft | 195 kts | 303° |
| 2026-05-06 08:37 | 36.77099 | 30.81049 | 1519 ft | 174 kts | 303° |
| 2026-05-06 08:37 | 36.77864 | 30.80058 | 1515 ft | 151 kts | 340° |
| 2026-05-06 08:38 | 36.78845 | 30.79839 | 1513 ft | 139 kts | 357° |
| 2026-05-06 08:38 | 36.79776 | 30.79765 | 1504 ft | 133 kts | 358° |
| 2026-05-06 08:38 | 36.80696 | 30.79803 | 1500 ft | 132 kts | 8° |
| 2026-05-06 08:38 | 36.81612 | 30.79917 | 1462 ft | 134 kts | 4° |
| 2026-05-06 08:39 | 36.82544 | 30.79990 | 1299 ft | 133 kts | 5° |
| 2026-05-06 08:39 | 36.83470 | 30.80082 | 1078 ft | 135 kts | 6° |
| 2026-05-06 08:39 | 36.84402 | 30.80206 | 843 ft | 133 kts | 6° |
| 2026-05-06 08:39 | 36.85317 | 30.80352 | 672 ft | 132 kts | 6° |
| 2026-05-06 08:40 | 36.86205 | 30.80481 | 485 ft | 128 kts | 4° |
| 2026-05-06 08:40 | 36.87089 | 30.80590 | 375 ft | 128 kts | 4° |
| 2026-05-06 08:40 | 36.87985 | 30.80707 | 244 ft | 131 kts | 5° |
| 2026-05-06 08:40 | 36.88850 | 30.80823 | 210 ft | 117 kts | 4° |
| 2026-05-06 08:41 | 36.89514 | 30.80910 | 207 ft | 61 kts | 6° |
| 2026-05-06 08:41 | 36.89661 | 30.80930 | 201 ft | 0 kts | 6° |
| 2026-05-06 08:41 | 36.89748 | 30.80942 | 207 ft | 23 kts | 6° |
| 2026-05-06 08:41 | 36.89906 | 30.80931 | 205 ft | 23 kts | 346° |
| 2026-05-06 08:42 | 36.90032 | 30.80874 | 207 ft | 2 kts | 338° |
| 2026-05-06 08:42 | 36.90057 | 30.80860 | 212 ft | 6 kts | 334° |
| 2026-05-06 08:42 | 36.90084 | 30.80814 | 203 ft | 9 kts | 280° |
| 2026-05-06 08:42 | 36.90047 | 30.80763 | 205 ft | 10 kts | 201° |
| 2026-05-06 08:43 | 36.89962 | 30.80744 | 210 ft | 14 kts | 186° |
| 2026-05-06 08:43 | 36.89854 | 30.80730 | 203 ft | 17 kts | 185° |
| 2026-05-06 08:43 | 36.89724 | 30.80713 | 200 ft | 20 kts | 187° |
| 2026-05-06 08:43 | 36.89580 | 30.80675 | 212 ft | 20 kts | 220° |
| 2026-05-06 08:44 | 36.89556 | 30.80590 | 209 ft | 1 kts | 234° |
| 2026-05-06 08:44 | 36.89533 | 30.80575 | 205 ft | 6 kts | 199° |
| 2026-05-06 08:44 | 36.89507 | 30.80570 | 204 ft | 0 kts | 189° |